sensor_id;sensor_type;location;lat;lon;timestamp;P1;durP1;ratioP1;P2;durP2;ratioP2
1014;SDS011;8170;48.118;11.628;2023-03-12T00:00:25;22.88;;;12.85;;
1014;SDS011;8170;48.118;11.628;2023-03-12T00:01:28;16.35;;;11.98;;
1014;SDS011;8170;48.118;11.628;2023-03-12T00:02:33;15.90;;;10.70;;
1014;SDS011;8170;48.118;11.628;2023-03-12T00:03:36;18.17;;;11.30;;
1014;SDS011;8170;48.118;11.628;2023-03-12T00:04:40;19.35;;;11.93;;
1014;SDS011;8170;48.118;11.628;2023-03-12T00:05:43;23.67;;;13.10;;
1014;SDS011;8170;48.118;11.628;2023-03-12T00:06:45;21.70;;;12.30;;
1014;SDS011;8170;48.118;11.628;2023-03-12T00:07:49;21.10;;;13.75;;
1014;SDS011;8170;48.118;11.628;2023-03-12T00:08:52;17.50;;;11.75;;
1014;SDS011;8170;48.118;11.628;2023-03-12T00:09:56;20.52;;;11.93;;
1014;SDS011;8170;48.118;11.628;2023-03-12T00:10:59;18.90;;;11.40;;
1014;SDS011;8170;48.118;11.628;2023-03-12T00:12:02;20.70;;;12.57;;
1014;SDS011;8170;48.118;11.628;2023-03-12T00:13:06;19.05;;;12.07;;
1014;SDS011;8170;48.118;11.628;2023-03-12T00:14:10;19.95;;;12.20;;
1014;SDS011;8170;48.118;11.628;2023-03-12T00:15:12;18.40;;;12.55;;
1014;SDS011;8170;48.118;11.628;2023-03-12T00:16:15;15.82;;;12.05;;
1014;SDS011;8170;48.118;11.628;2023-03-12T00:17:17;15.80;;;11.10;;
1014;SDS011;8170;48.118;11.628;2023-03-12T00:18:21;24.38;;;13.45;;
1014;SDS011;8170;48.118;11.628;2023-03-12T00:19:23;19.73;;;13.00;;
1014;SDS011;8170;48.118;11.628;2023-03-12T00:20:27;21.55;;;13.60;;
1014;SDS011;8170;48.118;11.628;2023-03-12T00:21:29;17.92;;;12.23;;
1014;SDS011;8170;48.118;11.628;2023-03-12T00:22:32;20.77;;;13.73;;
1014;SDS011;8170;48.118;11.628;2023-03-12T00:23:34;20.33;;;11.73;;
1014;SDS011;8170;48.118;11.628;2023-03-12T00:24:38;17.20;;;11.80;;
1014;SDS011;8170;48.118;11.628;2023-03-12T00:25:40;19.45;;;12.80;;
1014;SDS011;8170;48.118;11.628;2023-03-12T00:26:47;17.80;;;12.38;;
1014;SDS011;8170;48.118;11.628;2023-03-12T00:27:49;17.77;;;12.65;;
1014;SDS011;8170;48.118;11.628;2023-03-12T00:28:53;17.83;;;11.18;;
1014;SDS011;8170;48.118;11.628;2023-03-12T00:29:56;19.27;;;11.73;;
1014;SDS011;8170;48.118;11.628;2023-03-12T00:30:59;20.80;;;14.52;;
1014;SDS011;8170;48.118;11.628;2023-03-12T00:32:02;24.42;;;13.05;;
1014;SDS011;8170;48.118;11.628;2023-03-12T00:33:05;20.58;;;13.25;;
1014;SDS011;8170;48.118;11.628;2023-03-12T00:34:07;20.27;;;13.45;;
1014;SDS011;8170;48.118;11.628;2023-03-12T00:35:11;19.75;;;12.82;;
1014;SDS011;8170;48.118;11.628;2023-03-12T00:36:13;21.00;;;13.07;;
1014;SDS011;8170;48.118;11.628;2023-03-12T00:37:17;16.95;;;11.85;;
1014;SDS011;8170;48.118;11.628;2023-03-12T00:38:19;19.25;;;13.65;;
1014;SDS011;8170;48.118;11.628;2023-03-12T00:39:22;17.38;;;12.73;;
1014;SDS011;8170;48.118;11.628;2023-03-12T00:40:24;17.50;;;13.15;;
1014;SDS011;8170;48.118;11.628;2023-03-12T00:41:28;18.02;;;12.25;;
1014;SDS011;8170;48.118;11.628;2023-03-12T00:42:30;16.65;;;12.75;;
1014;SDS011;8170;48.118;11.628;2023-03-12T00:43:34;14.85;;;11.43;;
1014;SDS011;8170;48.118;11.628;2023-03-12T00:44:38;19.08;;;13.73;;
1014;SDS011;8170;48.118;11.628;2023-03-12T00:45:41;20.77;;;15.43;;
1014;SDS011;8170;48.118;11.628;2023-03-12T00:46:44;21.45;;;15.57;;
1014;SDS011;8170;48.118;11.628;2023-03-12T00:47:47;17.08;;;12.68;;
1014;SDS011;8170;48.118;11.628;2023-03-12T00:48:49;18.42;;;14.15;;
1014;SDS011;8170;48.118;11.628;2023-03-12T00:49:52;22.13;;;13.38;;
1014;SDS011;8170;48.118;11.628;2023-03-12T00:50:55;19.92;;;13.50;;
1014;SDS011;8170;48.118;11.628;2023-03-12T00:51:58;21.20;;;13.95;;
1014;SDS011;8170;48.118;11.628;2023-03-12T00:53:00;24.10;;;15.32;;
1014;SDS011;8170;48.118;11.628;2023-03-12T00:54:03;24.15;;;14.38;;
1014;SDS011;8170;48.118;11.628;2023-03-12T00:55:06;25.75;;;17.10;;
1014;SDS011;8170;48.118;11.628;2023-03-12T00:56:10;29.17;;;16.60;;
1014;SDS011;8170;48.118;11.628;2023-03-12T00:57:12;28.45;;;16.48;;
1014;SDS011;8170;48.118;11.628;2023-03-12T00:58:15;25.35;;;14.70;;
1014;SDS011;8170;48.118;11.628;2023-03-12T00:59:17;18.88;;;13.40;;
1014;SDS011;8170;48.118;11.628;2023-03-12T01:00:22;24.45;;;13.98;;
1014;SDS011;8170;48.118;11.628;2023-03-12T01:01:24;25.08;;;14.02;;
1014;SDS011;8170;48.118;11.628;2023-03-12T01:02:28;19.92;;;13.55;;
1014;SDS011;8170;48.118;11.628;2023-03-12T01:03:30;20.27;;;12.88;;
1014;SDS011;8170;48.118;11.628;2023-03-12T01:04:33;21.50;;;12.23;;
1014;SDS011;8170;48.118;11.628;2023-03-12T01:05:35;18.45;;;11.75;;
1014;SDS011;8170;48.118;11.628;2023-03-12T01:06:41;17.33;;;11.55;;
1014;SDS011;8170;48.118;11.628;2023-03-12T01:07:43;20.90;;;12.18;;
1014;SDS011;8170;48.118;11.628;2023-03-12T01:08:46;17.13;;;12.38;;
1014;SDS011;8170;48.118;11.628;2023-03-12T01:09:48;16.30;;;9.95;;
1014;SDS011;8170;48.118;11.628;2023-03-12T01:10:51;15.60;;;10.23;;
1014;SDS011;8170;48.118;11.628;2023-03-12T01:11:54;12.13;;;8.73;;
1014;SDS011;8170;48.118;11.628;2023-03-12T01:12:57;11.02;;;8.93;;
1014;SDS011;8170;48.118;11.628;2023-03-12T01:14:01;11.05;;;8.38;;
1014;SDS011;8170;48.118;11.628;2023-03-12T01:15:05;14.00;;;9.55;;
1014;SDS011;8170;48.118;11.628;2023-03-12T01:16:10;13.57;;;9.60;;
1014;SDS011;8170;48.118;11.628;2023-03-12T01:17:12;14.48;;;9.68;;
1014;SDS011;8170;48.118;11.628;2023-03-12T01:18:16;16.10;;;9.95;;
1014;SDS011;8170;48.118;11.628;2023-03-12T01:19:18;14.27;;;9.60;;
1014;SDS011;8170;48.118;11.628;2023-03-12T01:20:21;14.27;;;9.85;;
1014;SDS011;8170;48.118;11.628;2023-03-12T01:21:24;11.30;;;8.65;;
1014;SDS011;8170;48.118;11.628;2023-03-12T01:22:28;15.70;;;9.10;;
1014;SDS011;8170;48.118;11.628;2023-03-12T01:23:31;14.02;;;10.20;;
1014;SDS011;8170;48.118;11.628;2023-03-12T01:24:34;13.50;;;9.75;;
1014;SDS011;8170;48.118;11.628;2023-03-12T01:25:36;13.52;;;9.95;;
1014;SDS011;8170;48.118;11.628;2023-03-12T01:26:39;17.10;;;10.90;;
1014;SDS011;8170;48.118;11.628;2023-03-12T01:27:41;14.82;;;10.35;;
1014;SDS011;8170;48.118;11.628;2023-03-12T01:28:45;14.90;;;10.05;;
1014;SDS011;8170;48.118;11.628;2023-03-12T01:29:47;14.15;;;10.23;;
1014;SDS011;8170;48.118;11.628;2023-03-12T01:30:50;15.15;;;10.23;;
1014;SDS011;8170;48.118;11.628;2023-03-12T01:31:55;13.57;;;9.35;;
1014;SDS011;8170;48.118;11.628;2023-03-12T01:32:59;12.18;;;9.10;;
1014;SDS011;8170;48.118;11.628;2023-03-12T01:34:01;14.95;;;9.68;;
1014;SDS011;8170;48.118;11.628;2023-03-12T01:35:04;15.32;;;10.25;;
1014;SDS011;8170;48.118;11.628;2023-03-12T01:36:13;13.13;;;9.82;;
1014;SDS011;8170;48.118;11.628;2023-03-12T01:37:18;12.25;;;9.48;;
1014;SDS011;8170;48.118;11.628;2023-03-12T01:38:20;15.05;;;9.40;;
1014;SDS011;8170;48.118;11.628;2023-03-12T01:39:23;15.45;;;9.18;;
1014;SDS011;8170;48.118;11.628;2023-03-12T01:40:26;11.77;;;8.88;;
1014;SDS011;8170;48.118;11.628;2023-03-12T01:41:32;11.88;;;8.20;;
1014;SDS011;8170;48.118;11.628;2023-03-12T01:42:34;12.27;;;7.80;;
1014;SDS011;8170;48.118;11.628;2023-03-12T01:43:38;10.60;;;7.85;;
1014;SDS011;8170;48.118;11.628;2023-03-12T01:44:51;16.13;;;8.43;;
1014;SDS011;8170;48.118;11.628;2023-03-12T01:46:02;11.90;;;7.82;;
1014;SDS011;8170;48.118;11.628;2023-03-12T01:47:12;10.68;;;7.95;;
1014;SDS011;8170;48.118;11.628;2023-03-12T01:48:16;10.98;;;7.30;;
1014;SDS011;8170;48.118;11.628;2023-03-12T01:49:21;12.05;;;7.18;;
1014;SDS011;8170;48.118;11.628;2023-03-12T01:50:28;9.85;;;7.28;;
1014;SDS011;8170;48.118;11.628;2023-03-12T01:51:31;12.80;;;7.35;;
1014;SDS011;8170;48.118;11.628;2023-03-12T01:52:38;8.82;;;6.53;;
1014;SDS011;8170;48.118;11.628;2023-03-12T01:53:41;8.43;;;6.88;;
1014;SDS011;8170;48.118;11.628;2023-03-12T01:54:48;7.03;;;5.75;;
1014;SDS011;8170;48.118;11.628;2023-03-12T01:55:53;9.85;;;6.60;;
1014;SDS011;8170;48.118;11.628;2023-03-12T01:56:56;10.27;;;6.68;;
1014;SDS011;8170;48.118;11.628;2023-03-12T01:58:00;9.65;;;6.93;;
1014;SDS011;8170;48.118;11.628;2023-03-12T01:59:05;13.35;;;8.70;;
1014;SDS011;8170;48.118;11.628;2023-03-12T02:00:12;8.50;;;6.70;;
1014;SDS011;8170;48.118;11.628;2023-03-12T02:01:17;11.10;;;7.57;;
1014;SDS011;8170;48.118;11.628;2023-03-12T02:02:23;11.18;;;7.28;;
1014;SDS011;8170;48.118;11.628;2023-03-12T02:03:29;11.18;;;7.75;;
1014;SDS011;8170;48.118;11.628;2023-03-12T02:04:34;10.20;;;7.00;;
1014;SDS011;8170;48.118;11.628;2023-03-12T02:05:39;11.85;;;7.55;;
1014;SDS011;8170;48.118;11.628;2023-03-12T02:06:49;8.90;;;6.57;;
1014;SDS011;8170;48.118;11.628;2023-03-12T02:07:59;15.65;;;7.45;;
1014;SDS011;8170;48.118;11.628;2023-03-12T02:09:02;8.85;;;6.90;;
1014;SDS011;8170;48.118;11.628;2023-03-12T02:10:09;9.13;;;6.75;;
1014;SDS011;8170;48.118;11.628;2023-03-12T02:11:12;8.48;;;6.55;;
1014;SDS011;8170;48.118;11.628;2023-03-12T02:12:15;11.35;;;7.65;;
1014;SDS011;8170;48.118;11.628;2023-03-12T02:13:19;10.50;;;7.93;;
1014;SDS011;8170;48.118;11.628;2023-03-12T02:14:21;9.95;;;6.40;;
1014;SDS011;8170;48.118;11.628;2023-03-12T02:15:25;10.25;;;6.60;;
1014;SDS011;8170;48.118;11.628;2023-03-12T02:16:28;10.75;;;6.68;;
1014;SDS011;8170;48.118;11.628;2023-03-12T02:17:33;7.68;;;6.05;;
1014;SDS011;8170;48.118;11.628;2023-03-12T02:18:36;7.50;;;5.47;;
1014;SDS011;8170;48.118;11.628;2023-03-12T02:19:41;8.45;;;5.60;;
1014;SDS011;8170;48.118;11.628;2023-03-12T02:20:51;7.18;;;6.07;;
1014;SDS011;8170;48.118;11.628;2023-03-12T02:22:00;6.20;;;4.90;;
1014;SDS011;8170;48.118;11.628;2023-03-12T02:23:04;7.38;;;5.30;;
1014;SDS011;8170;48.118;11.628;2023-03-12T02:24:12;7.78;;;5.20;;
1014;SDS011;8170;48.118;11.628;2023-03-12T02:25:28;8.07;;;5.55;;
1014;SDS011;8170;48.118;11.628;2023-03-12T02:26:35;6.60;;;4.80;;
1014;SDS011;8170;48.118;11.628;2023-03-12T02:27:40;7.70;;;4.40;;
1014;SDS011;8170;48.118;11.628;2023-03-12T02:28:43;5.45;;;4.85;;
1014;SDS011;8170;48.118;11.628;2023-03-12T02:29:47;5.85;;;4.55;;
1014;SDS011;8170;48.118;11.628;2023-03-12T02:30:51;7.13;;;4.75;;
1014;SDS011;8170;48.118;11.628;2023-03-12T02:31:59;5.10;;;4.50;;
1014;SDS011;8170;48.118;11.628;2023-03-12T02:33:05;6.25;;;4.53;;
1014;SDS011;8170;48.118;11.628;2023-03-12T02:34:09;5.97;;;4.70;;
1014;SDS011;8170;48.118;11.628;2023-03-12T02:35:12;7.03;;;4.30;;
1014;SDS011;8170;48.118;11.628;2023-03-12T02:36:16;5.97;;;4.82;;
1014;SDS011;8170;48.118;11.628;2023-03-12T02:37:18;8.02;;;4.90;;
1014;SDS011;8170;48.118;11.628;2023-03-12T02:38:31;7.00;;;4.30;;
1014;SDS011;8170;48.118;11.628;2023-03-12T02:39:37;8.52;;;4.45;;
1014;SDS011;8170;48.118;11.628;2023-03-12T02:40:44;5.32;;;4.57;;
1014;SDS011;8170;48.118;11.628;2023-03-12T02:41:49;6.22;;;4.00;;
1014;SDS011;8170;48.118;11.628;2023-03-12T02:42:55;9.57;;;4.43;;
1014;SDS011;8170;48.118;11.628;2023-03-12T02:43:59;6.00;;;4.03;;
1014;SDS011;8170;48.118;11.628;2023-03-12T02:45:07;5.10;;;4.28;;
1014;SDS011;8170;48.118;11.628;2023-03-12T02:46:10;5.82;;;4.47;;
1014;SDS011;8170;48.118;11.628;2023-03-12T02:47:14;4.57;;;3.90;;
1014;SDS011;8170;48.118;11.628;2023-03-12T02:48:17;5.00;;;3.80;;
1014;SDS011;8170;48.118;11.628;2023-03-12T02:49:20;7.35;;;3.75;;
1014;SDS011;8170;48.118;11.628;2023-03-12T02:50:24;5.95;;;4.05;;
1014;SDS011;8170;48.118;11.628;2023-03-12T02:51:26;5.32;;;4.53;;
1014;SDS011;8170;48.118;11.628;2023-03-12T02:52:29;4.18;;;3.78;;
1014;SDS011;8170;48.118;11.628;2023-03-12T02:53:36;5.30;;;4.05;;
1014;SDS011;8170;48.118;11.628;2023-03-12T02:54:39;5.85;;;4.53;;
1014;SDS011;8170;48.118;11.628;2023-03-12T02:55:44;5.05;;;4.55;;
1014;SDS011;8170;48.118;11.628;2023-03-12T02:56:47;5.97;;;4.35;;
1014;SDS011;8170;48.118;11.628;2023-03-12T02:57:51;7.18;;;4.68;;
1014;SDS011;8170;48.118;11.628;2023-03-12T02:58:54;5.00;;;4.10;;
1014;SDS011;8170;48.118;11.628;2023-03-12T02:59:57;5.20;;;4.00;;
1014;SDS011;8170;48.118;11.628;2023-03-12T03:01:02;5.57;;;4.97;;
1014;SDS011;8170;48.118;11.628;2023-03-12T03:02:05;7.68;;;4.93;;
1014;SDS011;8170;48.118;11.628;2023-03-12T03:03:10;7.05;;;5.15;;
1014;SDS011;8170;48.118;11.628;2023-03-12T03:04:12;7.20;;;4.85;;
1014;SDS011;8170;48.118;11.628;2023-03-12T03:05:15;5.60;;;4.50;;
1014;SDS011;8170;48.118;11.628;2023-03-12T03:06:18;7.78;;;4.30;;
1014;SDS011;8170;48.118;11.628;2023-03-12T03:07:21;5.30;;;4.28;;
1014;SDS011;8170;48.118;11.628;2023-03-12T03:08:23;4.60;;;3.90;;
1014;SDS011;8170;48.118;11.628;2023-03-12T03:09:27;7.40;;;4.25;;
1014;SDS011;8170;48.118;11.628;2023-03-12T03:10:29;4.97;;;4.15;;
1014;SDS011;8170;48.118;11.628;2023-03-12T03:11:34;4.70;;;3.78;;
1014;SDS011;8170;48.118;11.628;2023-03-12T03:12:38;7.50;;;4.13;;
1014;SDS011;8170;48.118;11.628;2023-03-12T03:13:41;4.63;;;3.85;;
1014;SDS011;8170;48.118;11.628;2023-03-12T03:14:44;4.15;;;3.47;;
1014;SDS011;8170;48.118;11.628;2023-03-12T03:15:47;5.63;;;4.50;;
1014;SDS011;8170;48.118;11.628;2023-03-12T03:16:49;5.80;;;4.47;;
1014;SDS011;8170;48.118;11.628;2023-03-12T03:17:55;4.18;;;3.50;;
1014;SDS011;8170;48.118;11.628;2023-03-12T03:18:58;5.70;;;3.83;;
1014;SDS011;8170;48.118;11.628;2023-03-12T03:20:02;5.95;;;3.45;;
1014;SDS011;8170;48.118;11.628;2023-03-12T03:21:08;5.95;;;3.67;;
1014;SDS011;8170;48.118;11.628;2023-03-12T03:22:17;4.60;;;3.88;;
1014;SDS011;8170;48.118;11.628;2023-03-12T03:23:20;5.30;;;3.90;;
1014;SDS011;8170;48.118;11.628;2023-03-12T03:24:24;5.72;;;3.97;;
1014;SDS011;8170;48.118;11.628;2023-03-12T03:25:27;5.18;;;3.75;;
1014;SDS011;8170;48.118;11.628;2023-03-12T03:26:29;4.97;;;4.30;;
1014;SDS011;8170;48.118;11.628;2023-03-12T03:27:34;4.80;;;3.80;;
1014;SDS011;8170;48.118;11.628;2023-03-12T03:28:36;6.40;;;4.60;;
1014;SDS011;8170;48.118;11.628;2023-03-12T03:29:40;5.40;;;4.18;;
1014;SDS011;8170;48.118;11.628;2023-03-12T03:30:42;4.90;;;4.22;;
1014;SDS011;8170;48.118;11.628;2023-03-12T03:31:46;4.85;;;3.75;;
1014;SDS011;8170;48.118;11.628;2023-03-12T03:32:48;4.40;;;3.78;;
1014;SDS011;8170;48.118;11.628;2023-03-12T03:33:52;6.82;;;4.55;;
1014;SDS011;8170;48.118;11.628;2023-03-12T03:34:54;4.97;;;4.13;;
1014;SDS011;8170;48.118;11.628;2023-03-12T03:35:58;5.15;;;4.47;;
1014;SDS011;8170;48.118;11.628;2023-03-12T03:37:04;6.35;;;4.13;;
1014;SDS011;8170;48.118;11.628;2023-03-12T03:38:07;4.28;;;3.80;;
1014;SDS011;8170;48.118;11.628;2023-03-12T03:39:10;5.07;;;3.78;;
1014;SDS011;8170;48.118;11.628;2023-03-12T03:40:13;4.80;;;3.75;;
1014;SDS011;8170;48.118;11.628;2023-03-12T03:41:15;4.57;;;3.38;;
1014;SDS011;8170;48.118;11.628;2023-03-12T03:42:19;6.22;;;4.80;;
1014;SDS011;8170;48.118;11.628;2023-03-12T03:43:23;4.82;;;4.25;;
1014;SDS011;8170;48.118;11.628;2023-03-12T03:44:27;4.35;;;3.83;;
1014;SDS011;8170;48.118;11.628;2023-03-12T03:45:30;5.57;;;3.88;;
1014;SDS011;8170;48.118;11.628;2023-03-12T03:46:33;7.63;;;4.60;;
1014;SDS011;8170;48.118;11.628;2023-03-12T03:47:38;7.15;;;4.45;;
1014;SDS011;8170;48.118;11.628;2023-03-12T03:48:42;4.95;;;4.25;;
1014;SDS011;8170;48.118;11.628;2023-03-12T03:49:45;9.75;;;4.30;;
1014;SDS011;8170;48.118;11.628;2023-03-12T03:50:49;5.25;;;4.40;;
1014;SDS011;8170;48.118;11.628;2023-03-12T03:51:51;4.45;;;3.92;;
1014;SDS011;8170;48.118;11.628;2023-03-12T03:53:04;5.72;;;4.40;;
1014;SDS011;8170;48.118;11.628;2023-03-12T03:54:07;5.35;;;4.85;;
1014;SDS011;8170;48.118;11.628;2023-03-12T03:55:10;4.82;;;4.40;;
1014;SDS011;8170;48.118;11.628;2023-03-12T03:56:13;6.72;;;4.57;;
1014;SDS011;8170;48.118;11.628;2023-03-12T03:57:21;5.70;;;4.25;;
1014;SDS011;8170;48.118;11.628;2023-03-12T03:58:25;4.50;;;4.05;;
1014;SDS011;8170;48.118;11.628;2023-03-12T03:59:28;4.63;;;4.15;;
1014;SDS011;8170;48.118;11.628;2023-03-12T04:00:31;5.95;;;4.85;;
1014;SDS011;8170;48.118;11.628;2023-03-12T04:01:34;7.20;;;5.30;;
1014;SDS011;8170;48.118;11.628;2023-03-12T04:02:37;8.25;;;4.65;;
1014;SDS011;8170;48.118;11.628;2023-03-12T04:03:42;6.82;;;4.70;;
1014;SDS011;8170;48.118;11.628;2023-03-12T04:04:44;6.65;;;4.70;;
1014;SDS011;8170;48.118;11.628;2023-03-12T04:05:52;5.68;;;4.57;;
1014;SDS011;8170;48.118;11.628;2023-03-12T04:06:55;6.35;;;4.53;;
1014;SDS011;8170;48.118;11.628;2023-03-12T04:07:58;4.88;;;4.38;;
1014;SDS011;8170;48.118;11.628;2023-03-12T04:09:05;4.97;;;4.28;;
1014;SDS011;8170;48.118;11.628;2023-03-12T04:10:10;6.15;;;4.47;;
1014;SDS011;8170;48.118;11.628;2023-03-12T04:11:13;4.70;;;3.80;;
1014;SDS011;8170;48.118;11.628;2023-03-12T04:12:18;7.70;;;5.55;;
1014;SDS011;8170;48.118;11.628;2023-03-12T04:13:20;6.80;;;4.53;;
1014;SDS011;8170;48.118;11.628;2023-03-12T04:14:25;5.05;;;4.00;;
1014;SDS011;8170;48.118;11.628;2023-03-12T04:15:27;5.75;;;4.45;;
1014;SDS011;8170;48.118;11.628;2023-03-12T04:16:31;6.65;;;5.22;;
1014;SDS011;8170;48.118;11.628;2023-03-12T04:17:35;5.65;;;4.57;;
1014;SDS011;8170;48.118;11.628;2023-03-12T04:18:38;7.15;;;4.80;;
1014;SDS011;8170;48.118;11.628;2023-03-12T04:19:40;6.95;;;4.88;;
1014;SDS011;8170;48.118;11.628;2023-03-12T04:20:44;5.47;;;4.30;;
1014;SDS011;8170;48.118;11.628;2023-03-12T04:21:46;4.60;;;3.80;;
1014;SDS011;8170;48.118;11.628;2023-03-12T04:22:49;6.45;;;4.60;;
1014;SDS011;8170;48.118;11.628;2023-03-12T04:23:52;5.32;;;4.63;;
1014;SDS011;8170;48.118;11.628;2023-03-12T04:24:58;5.97;;;4.65;;
1014;SDS011;8170;48.118;11.628;2023-03-12T04:26:02;5.53;;;4.63;;
1014;SDS011;8170;48.118;11.628;2023-03-12T04:27:05;4.80;;;4.30;;
1014;SDS011;8170;48.118;11.628;2023-03-12T04:28:08;6.88;;;5.43;;
1014;SDS011;8170;48.118;11.628;2023-03-12T04:29:12;4.50;;;4.00;;
1014;SDS011;8170;48.118;11.628;2023-03-12T04:30:18;6.22;;;4.55;;
1014;SDS011;8170;48.118;11.628;2023-03-12T04:31:20;5.22;;;4.60;;
1014;SDS011;8170;48.118;11.628;2023-03-12T04:32:24;6.00;;;4.50;;
1014;SDS011;8170;48.118;11.628;2023-03-12T04:33:27;5.47;;;4.70;;
1014;SDS011;8170;48.118;11.628;2023-03-12T04:34:32;5.72;;;4.55;;
1014;SDS011;8170;48.118;11.628;2023-03-12T04:35:35;5.82;;;4.80;;
1014;SDS011;8170;48.118;11.628;2023-03-12T04:36:37;8.38;;;4.95;;
1014;SDS011;8170;48.118;11.628;2023-03-12T04:37:41;6.28;;;5.45;;
1014;SDS011;8170;48.118;11.628;2023-03-12T04:38:44;7.07;;;5.50;;
1014;SDS011;8170;48.118;11.628;2023-03-12T04:39:49;8.50;;;5.70;;
1014;SDS011;8170;48.118;11.628;2023-03-12T04:40:58;6.55;;;5.10;;
1014;SDS011;8170;48.118;11.628;2023-03-12T04:42:01;7.18;;;5.40;;
1014;SDS011;8170;48.118;11.628;2023-03-12T04:43:05;6.38;;;5.07;;
1014;SDS011;8170;48.118;11.628;2023-03-12T04:44:07;6.72;;;4.95;;
1014;SDS011;8170;48.118;11.628;2023-03-12T04:45:13;6.07;;;5.10;;
1014;SDS011;8170;48.118;11.628;2023-03-12T04:46:20;7.47;;;5.78;;
1014;SDS011;8170;48.118;11.628;2023-03-12T04:47:24;5.90;;;5.28;;
1014;SDS011;8170;48.118;11.628;2023-03-12T04:48:26;7.13;;;5.82;;
1014;SDS011;8170;48.118;11.628;2023-03-12T04:49:29;6.22;;;4.90;;
1014;SDS011;8170;48.118;11.628;2023-03-12T04:50:32;6.70;;;4.85;;
1014;SDS011;8170;48.118;11.628;2023-03-12T04:51:35;5.03;;;4.47;;
1014;SDS011;8170;48.118;11.628;2023-03-12T04:52:39;5.75;;;5.03;;
1014;SDS011;8170;48.118;11.628;2023-03-12T04:53:42;6.60;;;5.20;;
1014;SDS011;8170;48.118;11.628;2023-03-12T04:54:46;6.70;;;5.60;;
1014;SDS011;8170;48.118;11.628;2023-03-12T04:55:49;6.40;;;5.40;;
1014;SDS011;8170;48.118;11.628;2023-03-12T04:56:53;6.35;;;5.50;;
1014;SDS011;8170;48.118;11.628;2023-03-12T04:57:56;9.18;;;6.28;;
1014;SDS011;8170;48.118;11.628;2023-03-12T04:58:59;7.90;;;5.68;;
1014;SDS011;8170;48.118;11.628;2023-03-12T05:00:03;6.18;;;5.15;;
1014;SDS011;8170;48.118;11.628;2023-03-12T05:01:12;8.73;;;6.18;;
1014;SDS011;8170;48.118;11.628;2023-03-12T05:02:24;6.00;;;5.00;;
1014;SDS011;8170;48.118;11.628;2023-03-12T05:03:28;6.10;;;5.50;;
1014;SDS011;8170;48.118;11.628;2023-03-12T05:04:31;6.53;;;5.78;;
1014;SDS011;8170;48.118;11.628;2023-03-12T05:05:34;6.82;;;5.70;;
1014;SDS011;8170;48.118;11.628;2023-03-12T05:06:37;8.40;;;6.03;;
1014;SDS011;8170;48.118;11.628;2023-03-12T05:07:40;13.30;;;6.47;;
1014;SDS011;8170;48.118;11.628;2023-03-12T05:08:43;5.75;;;4.95;;
1014;SDS011;8170;48.118;11.628;2023-03-12T05:09:46;7.05;;;6.03;;
1014;SDS011;8170;48.118;11.628;2023-03-12T05:10:48;10.20;;;5.85;;
1014;SDS011;8170;48.118;11.628;2023-03-12T05:11:52;10.25;;;6.28;;
1014;SDS011;8170;48.118;11.628;2023-03-12T05:12:56;9.15;;;6.10;;
1014;SDS011;8170;48.118;11.628;2023-03-12T05:13:59;13.10;;;6.22;;
1014;SDS011;8170;48.118;11.628;2023-03-12T05:15:03;8.38;;;6.40;;
1014;SDS011;8170;48.118;11.628;2023-03-12T05:16:06;7.18;;;5.80;;
1014;SDS011;8170;48.118;11.628;2023-03-12T05:17:12;7.40;;;6.13;;
1014;SDS011;8170;48.118;11.628;2023-03-12T05:18:14;6.47;;;5.70;;
1014;SDS011;8170;48.118;11.628;2023-03-12T05:19:17;6.80;;;6.10;;
1014;SDS011;8170;48.118;11.628;2023-03-12T05:20:20;9.20;;;5.82;;
1014;SDS011;8170;48.118;11.628;2023-03-12T05:21:23;8.48;;;6.15;;
1014;SDS011;8170;48.118;11.628;2023-03-12T05:22:28;6.35;;;5.60;;
1014;SDS011;8170;48.118;11.628;2023-03-12T05:23:31;6.60;;;5.55;;
1014;SDS011;8170;48.118;11.628;2023-03-12T05:24:34;6.90;;;5.10;;
1014;SDS011;8170;48.118;11.628;2023-03-12T05:25:38;6.50;;;5.10;;
1014;SDS011;8170;48.118;11.628;2023-03-12T05:26:41;6.50;;;5.13;;
1014;SDS011;8170;48.118;11.628;2023-03-12T05:28:50;7.07;;;5.97;;
1014;SDS011;8170;48.118;11.628;2023-03-12T05:29:56;7.75;;;6.00;;
1014;SDS011;8170;48.118;11.628;2023-03-12T05:30:59;9.30;;;7.47;;
1014;SDS011;8170;48.118;11.628;2023-03-12T05:32:04;8.27;;;6.53;;
1014;SDS011;8170;48.118;11.628;2023-03-12T05:33:10;7.18;;;6.47;;
1014;SDS011;8170;48.118;11.628;2023-03-12T05:34:12;8.25;;;7.30;;
1014;SDS011;8170;48.118;11.628;2023-03-12T05:35:18;9.70;;;7.43;;
1014;SDS011;8170;48.118;11.628;2023-03-12T05:36:20;9.00;;;6.57;;
1014;SDS011;8170;48.118;11.628;2023-03-12T05:37:23;9.15;;;7.32;;
1014;SDS011;8170;48.118;11.628;2023-03-12T05:38:25;8.02;;;6.82;;
1014;SDS011;8170;48.118;11.628;2023-03-12T05:39:28;8.77;;;7.32;;
1014;SDS011;8170;48.118;11.628;2023-03-12T05:40:37;10.02;;;7.88;;
1014;SDS011;8170;48.118;11.628;2023-03-12T05:41:39;8.07;;;6.45;;
1014;SDS011;8170;48.118;11.628;2023-03-12T05:42:50;7.60;;;6.80;;
1014;SDS011;8170;48.118;11.628;2023-03-12T05:43:54;7.68;;;6.60;;
1014;SDS011;8170;48.118;11.628;2023-03-12T05:44:59;9.35;;;6.97;;
1014;SDS011;8170;48.118;11.628;2023-03-12T05:46:02;8.98;;;7.78;;
1014;SDS011;8170;48.118;11.628;2023-03-12T05:47:08;8.10;;;7.22;;
1014;SDS011;8170;48.118;11.628;2023-03-12T05:48:14;8.18;;;6.55;;
1014;SDS011;8170;48.118;11.628;2023-03-12T05:49:17;9.90;;;7.55;;
1014;SDS011;8170;48.118;11.628;2023-03-12T05:50:20;7.65;;;6.68;;
1014;SDS011;8170;48.118;11.628;2023-03-12T05:51:24;9.10;;;7.05;;
1014;SDS011;8170;48.118;11.628;2023-03-12T05:52:26;8.82;;;6.95;;
1014;SDS011;8170;48.118;11.628;2023-03-12T05:53:29;8.13;;;6.90;;
1014;SDS011;8170;48.118;11.628;2023-03-12T05:54:32;7.90;;;7.05;;
1014;SDS011;8170;48.118;11.628;2023-03-12T05:55:37;9.45;;;7.40;;
1014;SDS011;8170;48.118;11.628;2023-03-12T05:56:40;10.00;;;7.20;;
1014;SDS011;8170;48.118;11.628;2023-03-12T05:57:44;7.22;;;6.20;;
1014;SDS011;8170;48.118;11.628;2023-03-12T05:58:46;8.45;;;6.97;;
1014;SDS011;8170;48.118;11.628;2023-03-12T05:59:52;8.73;;;7.07;;
1014;SDS011;8170;48.118;11.628;2023-03-12T06:00:54;10.57;;;7.00;;
1014;SDS011;8170;48.118;11.628;2023-03-12T06:01:58;7.88;;;6.70;;
1014;SDS011;8170;48.118;11.628;2023-03-12T06:03:00;7.45;;;6.65;;
1014;SDS011;8170;48.118;11.628;2023-03-12T06:04:05;8.00;;;7.20;;
1014;SDS011;8170;48.118;11.628;2023-03-12T06:05:08;7.70;;;6.15;;
1014;SDS011;8170;48.118;11.628;2023-03-12T06:06:12;7.65;;;6.45;;
1014;SDS011;8170;48.118;11.628;2023-03-12T06:07:15;8.50;;;6.53;;
1014;SDS011;8170;48.118;11.628;2023-03-12T06:08:18;8.00;;;7.20;;
1014;SDS011;8170;48.118;11.628;2023-03-12T06:09:20;7.38;;;5.93;;
1014;SDS011;8170;48.118;11.628;2023-03-12T06:10:23;7.50;;;6.70;;
1014;SDS011;8170;48.118;11.628;2023-03-12T06:11:26;9.05;;;6.75;;
1014;SDS011;8170;48.118;11.628;2023-03-12T06:12:29;7.47;;;6.40;;
1014;SDS011;8170;48.118;11.628;2023-03-12T06:13:31;10.55;;;7.40;;
1014;SDS011;8170;48.118;11.628;2023-03-12T06:14:35;14.63;;;7.13;;
1014;SDS011;8170;48.118;11.628;2023-03-12T06:15:39;8.45;;;6.50;;
1014;SDS011;8170;48.118;11.628;2023-03-12T06:16:41;8.20;;;6.93;;
1014;SDS011;8170;48.118;11.628;2023-03-12T06:17:45;7.10;;;6.40;;
1014;SDS011;8170;48.118;11.628;2023-03-12T06:18:47;8.15;;;6.75;;
1014;SDS011;8170;48.118;11.628;2023-03-12T06:19:55;9.15;;;7.13;;
1014;SDS011;8170;48.118;11.628;2023-03-12T06:21:09;11.75;;;7.18;;
1014;SDS011;8170;48.118;11.628;2023-03-12T06:22:14;9.55;;;7.03;;
1014;SDS011;8170;48.118;11.628;2023-03-12T06:23:16;7.63;;;6.35;;
1014;SDS011;8170;48.118;11.628;2023-03-12T06:24:21;7.38;;;6.65;;
1014;SDS011;8170;48.118;11.628;2023-03-12T06:25:28;8.77;;;6.70;;
1014;SDS011;8170;48.118;11.628;2023-03-12T06:26:32;7.95;;;6.43;;
1014;SDS011;8170;48.118;11.628;2023-03-12T06:27:34;8.48;;;6.05;;
1014;SDS011;8170;48.118;11.628;2023-03-12T06:28:37;6.70;;;5.65;;